Terminal Aerodrome Forecast
Issued by NWS

Home | Current Version | Previous Version | Text Only | Print | Product List | Glossary On
Versions: 1 2 3 4 5 6 7 8 9 10 11 12 13 14
437
FTUS45 KABQ 052338
TAFAEG
TAF
KAEG 052338Z 0600/0624 21005KT P6SM SCT250
     FM060100 VRB05KT P6SM FEW150 BKN250
     FM061400 14008KT P6SM BKN150
     FM061800 20012G20KT P6SM SCT150=

USA.gov is the U.S. government's official web portal to all federal, state and local government web resources and services.